createdAt,value
2023-08-17T00:00:53.203Z,17.60
2023-08-17T00:03:20.820Z,17.60
2023-08-17T00:05:48.370Z,17.60
2023-08-17T00:08:15.770Z,17.60
2023-08-17T00:10:43.199Z,17.50
2023-08-17T00:13:10.778Z,17.50
2023-08-17T00:15:38.144Z,17.20
2023-08-17T00:18:05.672Z,17.50
2023-08-17T00:20:33.521Z,17.50
2023-08-17T00:23:00.879Z,17.50
2023-08-17T00:25:28.270Z,17.50
2023-08-17T00:27:55.903Z,17.50
2023-08-17T00:30:23.331Z,17.50
2023-08-17T00:32:50.877Z,17.60
2023-08-17T00:35:18.328Z,17.60
2023-08-17T00:37:45.732Z,17.60
2023-08-17T00:40:13.336Z,17.60
2023-08-17T00:42:40.691Z,17.60
2023-08-17T00:45:08.619Z,17.60
2023-08-17T00:47:36.341Z,18.70
2023-08-17T00:50:04.037Z,17.70
2023-08-17T00:52:34.270Z,17.70
2023-08-17T00:55:03.783Z,17.60
2023-08-17T00:57:32.496Z,17.60
2023-08-17T01:00:05.373Z,17.60
2023-08-17T01:02:34.381Z,17.60
2023-08-17T01:05:02.290Z,17.60
2023-08-17T01:07:29.979Z,17.60
2023-08-17T01:09:57.462Z,17.60
2023-08-17T01:12:25.631Z,17.50
2023-08-17T01:15:10.947Z,17.60
2023-08-17T01:17:57.938Z,17.60
2023-08-17T01:20:27.633Z,17.60
2023-08-17T01:22:59.817Z,17.60
2023-08-17T01:25:27.126Z,17.70
2023-08-17T01:27:54.569Z,17.80
2023-08-17T01:30:21.994Z,17.70
2023-08-17T01:32:59.861Z,17.70
2023-08-17T01:35:49.678Z,17.70
2023-08-17T01:38:20.709Z,17.70
2023-08-17T01:40:50.737Z,17.70
2023-08-17T01:43:19.053Z,17.70
2023-08-17T01:45:47.151Z,17.70
2023-08-17T01:48:15.019Z,17.70
2023-08-17T01:50:42.466Z,17.70
2023-08-17T01:53:11.096Z,17.70
2023-08-17T01:55:38.599Z,17.70
2023-08-17T01:58:06.058Z,17.80
2023-08-17T02:00:33.414Z,18.10
2023-08-17T02:03:00.770Z,17.80
2023-08-17T02:05:30.324Z,17.80
2023-08-17T02:07:57.795Z,17.80
2023-08-17T02:10:25.162Z,17.80
2023-08-17T02:12:58.902Z,17.80
2023-08-17T02:15:29.341Z,17.90
2023-08-17T02:17:58.049Z,17.90
2023-08-17T02:20:25.455Z,17.90
2023-08-17T02:22:52.835Z,17.90
2023-08-17T02:25:20.233Z,17.90
2023-08-17T02:27:47.592Z,17.90
2023-08-17T02:30:15.192Z,17.90
2023-08-17T02:32:42.699Z,18.20
2023-08-17T02:35:10.095Z,17.90
2023-08-17T02:37:37.541Z,17.90
2023-08-17T02:40:05.507Z,17.90
2023-08-17T02:42:32.862Z,17.90
2023-08-17T02:45:00.212Z,17.90
2023-08-17T02:47:27.732Z,17.90
2023-08-17T02:49:55.451Z,17.90
2023-08-17T02:52:22.758Z,17.90
2023-08-17T02:54:50.149Z,17.90
2023-08-17T02:57:17.605Z,17.90
2023-08-17T02:59:44.964Z,17.80
2023-08-17T03:02:12.489Z,17.90
2023-08-17T03:04:39.872Z,17.90
2023-08-17T03:07:07.220Z,17.90
2023-08-17T03:09:34.619Z,17.90
2023-08-17T03:12:01.929Z,17.90
2023-08-17T03:14:29.749Z,17.90
2023-08-17T03:16:57.070Z,18.00
2023-08-17T03:19:24.543Z,17.90
2023-08-17T03:21:51.854Z,17.90
2023-08-17T03:24:19.296Z,17.90
2023-08-17T03:26:46.626Z,17.90
2023-08-17T03:29:14.064Z,17.90
2023-08-17T03:31:41.520Z,18.10
2023-08-17T03:34:08.987Z,17.80
2023-08-17T03:36:36.976Z,18.00
2023-08-17T03:39:04.639Z,17.90
2023-08-17T03:41:32.047Z,17.90
2023-08-17T03:43:59.400Z,17.90
2023-08-17T03:46:26.768Z,18.00
2023-08-17T03:48:54.507Z,17.90
2023-08-17T03:51:21.927Z,18.00
2023-08-17T03:53:49.255Z,17.90
2023-08-17T03:56:16.586Z,17.90
2023-08-17T03:58:44.958Z,17.90
2023-08-17T04:01:12.730Z,17.90
2023-08-17T04:03:40.089Z,18.00
2023-08-17T04:06:11.335Z,18.00
2023-08-17T04:08:39.346Z,17.70
2023-08-17T04:11:07.037Z,18.00
2023-08-17T04:13:34.442Z,18.00
2023-08-17T04:16:01.809Z,18.00
2023-08-17T04:18:29.158Z,18.00
2023-08-17T04:20:56.502Z,18.00
2023-08-17T04:23:24.309Z,18.00
2023-08-17T04:25:51.620Z,18.00
2023-08-17T04:28:18.938Z,18.00
2023-08-17T04:30:46.379Z,18.00
2023-08-17T04:33:14.197Z,18.00
2023-08-17T04:35:41.584Z,18.00
2023-08-17T04:38:08.883Z,18.00
2023-08-17T04:40:36.235Z,18.00
2023-08-17T04:43:03.706Z,18.00
2023-08-17T04:45:31.140Z,18.00
2023-08-17T04:47:58.559Z,18.00
2023-08-17T04:50:25.890Z,18.00
2023-08-17T04:52:53.241Z,18.00
2023-08-17T04:55:22.586Z,18.00
2023-08-17T04:57:49.905Z,18.00
2023-08-17T05:00:17.536Z,18.00
2023-08-17T05:02:44.956Z,18.00
2023-08-17T05:05:12.512Z,18.00
2023-08-17T05:07:39.899Z,18.00
2023-08-17T05:10:07.584Z,18.00
2023-08-17T05:12:34.941Z,18.00
2023-08-17T05:15:02.265Z,18.00
2023-08-17T05:17:29.710Z,18.00
2023-08-17T05:19:57.223Z,18.00
2023-08-17T05:22:25.119Z,18.00
2023-08-17T05:24:52.496Z,18.00
2023-08-17T05:27:19.827Z,18.00
2023-08-17T05:29:47.148Z,18.00
2023-08-17T05:32:14.654Z,18.00
2023-08-17T05:34:42.184Z,18.00
2023-08-17T05:37:09.510Z,18.00
2023-08-17T05:39:37.061Z,18.00
2023-08-17T05:42:04.816Z,18.10
2023-08-17T05:44:32.157Z,18.10
2023-08-17T05:46:59.547Z,18.10
2023-08-17T05:49:26.870Z,18.10
2023-08-17T05:51:54.336Z,18.10
2023-08-17T05:54:21.653Z,18.10
2023-08-17T05:56:48.937Z,18.10
2023-08-17T05:59:16.391Z,18.10
2023-08-17T06:01:43.795Z,18.10
2023-08-17T06:04:11.117Z,18.10
2023-08-17T06:06:38.500Z,18.10
2023-08-17T06:09:05.985Z,18.20
2023-08-17T06:11:33.266Z,18.20
2023-08-17T06:14:00.604Z,18.20
2023-08-17T06:16:27.988Z,18.20
2023-08-17T06:18:55.353Z,18.30
2023-08-17T06:21:22.885Z,18.30
2023-08-17T06:23:50.540Z,17.90
2023-08-17T06:26:17.875Z,18.40
2023-08-17T06:28:45.195Z,18.40
2023-08-17T06:31:16.569Z,18.50
2023-08-17T06:33:43.971Z,18.50
2023-08-17T06:36:14.414Z,18.60
2023-08-17T06:38:41.815Z,18.60
2023-08-17T06:41:09.327Z,18.60
2023-08-17T06:43:36.714Z,18.70
2023-08-17T06:46:04.756Z,18.70
2023-08-17T06:48:32.754Z,18.80
2023-08-17T06:51:00.098Z,18.80
2023-08-17T06:53:27.480Z,18.80
2023-08-17T06:55:54.843Z,18.80
2023-08-17T06:58:22.721Z,19.20
2023-08-17T07:00:50.253Z,18.90
2023-08-17T07:03:17.977Z,18.90
2023-08-17T07:05:45.463Z,18.90
2023-08-17T07:08:12.797Z,18.90
2023-08-17T07:10:40.458Z,18.90
2023-08-17T07:13:07.866Z,19.00
2023-08-17T07:15:35.272Z,19.00
2023-08-17T07:18:02.700Z,19.00
2023-08-17T07:20:30.247Z,19.00
2023-08-17T07:22:58.063Z,19.00
2023-08-17T07:25:25.482Z,19.10
2023-08-17T07:27:55.904Z,19.10
2023-08-17T07:30:23.483Z,19.10
2023-08-17T07:32:50.941Z,19.20
2023-08-17T07:35:21.166Z,19.20
2023-08-17T07:37:59.688Z,19.20
2023-08-17T07:40:35.372Z,19.20
2023-08-17T07:43:02.966Z,19.20
2023-08-17T07:45:30.381Z,19.20
2023-08-17T07:47:57.946Z,19.30
2023-08-17T07:50:25.447Z,19.30
2023-08-17T07:52:52.880Z,19.40
2023-08-17T07:55:20.422Z,19.40
2023-08-17T07:57:53.821Z,19.50
2023-08-17T08:00:24.413Z,19.50
2023-08-17T08:02:52.193Z,19.50
2023-08-17T08:05:19.631Z,19.50
2023-08-17T08:07:47.243Z,19.60
2023-08-17T08:10:14.890Z,19.60
2023-08-17T08:12:42.322Z,19.60
2023-08-17T08:15:10.193Z,19.60
2023-08-17T08:17:38.425Z,19.60
2023-08-17T08:20:06.787Z,19.60
2023-08-17T08:22:34.172Z,19.60
2023-08-17T08:25:02.119Z,19.70
2023-08-17T08:27:32.209Z,19.70
2023-08-17T08:30:01.016Z,19.80
2023-08-17T08:32:28.657Z,19.80
2023-08-17T08:34:57.935Z,19.80
2023-08-17T08:37:25.719Z,19.80
2023-08-17T08:39:55.763Z,19.80
2023-08-17T08:42:24.276Z,19.80
2023-08-17T08:44:52.095Z,19.90
2023-08-17T08:47:19.903Z,19.90
2023-08-17T08:50:00.767Z,19.90
2023-08-17T08:52:38.734Z,19.90
2023-08-17T08:55:16.867Z,19.90
2023-08-17T08:57:44.642Z,19.90
2023-08-17T09:00:14.128Z,19.90
2023-08-17T09:02:43.416Z,19.90
2023-08-17T09:05:12.534Z,19.90
2023-08-17T09:07:40.921Z,19.90
2023-08-17T09:10:09.954Z,20.00
2023-08-17T09:12:40.861Z,20.00
2023-08-17T09:15:09.446Z,20.00
2023-08-17T09:17:40.202Z,20.00
2023-08-17T09:20:09.480Z,20.00
2023-08-17T09:22:44.618Z,20.00
2023-08-17T09:25:12.552Z,20.00
2023-08-17T09:27:42.312Z,20.00
2023-08-17T09:30:13.309Z,20.10
2023-08-17T09:32:42.439Z,20.10
2023-08-17T09:35:10.353Z,20.10
2023-08-17T09:37:37.801Z,20.20
2023-08-17T09:40:05.901Z,20.30
2023-08-17T09:42:36.442Z,20.20
2023-08-17T09:45:04.480Z,20.40
2023-08-17T09:47:31.885Z,20.20
2023-08-17T09:49:59.412Z,20.30
2023-08-17T09:52:27.458Z,20.30
2023-08-17T09:54:56.188Z,20.40
2023-08-17T09:57:24.794Z,20.40
2023-08-17T09:59:56.293Z,20.40
2023-08-17T10:02:27.371Z,20.40
2023-08-17T10:04:57.224Z,20.30
2023-08-17T10:07:33.590Z,20.40
2023-08-17T10:10:08.959Z,20.40
2023-08-17T10:12:47.398Z,20.40
2023-08-17T10:15:19.872Z,20.50
2023-08-17T10:20:49.815Z,20.60
2023-08-17T10:23:20.092Z,20.60
2023-08-17T10:25:51.640Z,20.60
2023-08-17T10:28:20.314Z,20.70
2023-08-17T10:30:49.245Z,20.70
2023-08-17T10:33:17.280Z,20.30
2023-08-17T10:35:45.672Z,20.80
2023-08-17T10:38:13.564Z,20.80
2023-08-17T10:40:43.386Z,21.60
2023-08-17T10:43:12.630Z,20.90
2023-08-17T10:45:40.352Z,21.00
2023-08-17T10:48:10.903Z,21.00
2023-08-17T10:50:43.410Z,21.10
2023-08-17T10:53:14.108Z,21.10
2023-08-17T10:55:45.289Z,21.10
2023-08-17T10:58:16.307Z,21.00
2023-08-17T11:00:45.887Z,21.00
2023-08-17T11:03:21.753Z,21.00
2023-08-17T11:06:18.868Z,21.00
2023-08-17T11:08:57.330Z,21.00
2023-08-17T11:11:25.312Z,20.90
2023-08-17T11:13:56.680Z,20.90
2023-08-17T11:16:25.494Z,21.00
2023-08-17T11:18:53.530Z,20.90
2023-08-17T11:21:21.268Z,21.00
2023-08-17T11:23:49.398Z,21.00
2023-08-17T11:26:18.720Z,21.00
2023-08-17T11:28:46.640Z,21.00
2023-08-17T11:31:16.789Z,21.00
2023-08-17T11:33:46.183Z,21.10
2023-08-17T11:36:13.910Z,21.20
2023-08-17T11:38:44.063Z,21.30
2023-08-17T11:41:18.533Z,21.30
2023-08-17T11:43:47.945Z,21.30
2023-08-17T11:46:16.772Z,21.40
2023-08-17T11:48:44.776Z,21.30
2023-08-17T11:51:13.215Z,21.40
2023-08-17T11:53:41.251Z,21.30
2023-08-17T11:56:11.097Z,21.30
2023-08-17T11:58:46.803Z,21.30
2023-08-17T12:01:17.073Z,21.30
2023-08-17T12:03:45.449Z,21.40
2023-08-17T12:06:14.406Z,21.40
2023-08-17T12:08:47.712Z,21.50
2023-08-17T12:11:18.828Z,21.50
2023-08-17T12:13:53.935Z,21.60
2023-08-17T12:16:22.526Z,21.60
2023-08-17T12:18:51.636Z,21.60
2023-08-17T12:21:22.773Z,21.80
2023-08-17T12:23:50.506Z,21.80
2023-08-17T12:26:21.949Z,21.80
2023-08-17T12:28:50.773Z,21.80
2023-08-17T12:31:24.167Z,21.90
2023-08-17T12:33:52.424Z,21.90
2023-08-17T12:36:21.739Z,22.00
2023-08-17T12:38:49.613Z,22.00
2023-08-17T12:41:17.496Z,22.00
2023-08-17T12:43:47.167Z,22.00
2023-08-17T12:46:14.669Z,22.00
2023-08-17T12:48:42.743Z,21.10
2023-08-17T12:51:10.851Z,22.00
2023-08-17T12:53:38.634Z,22.00
2023-08-17T12:56:06.122Z,22.00
2023-08-17T12:58:33.537Z,21.90
2023-08-17T13:01:01.092Z,21.90
2023-08-17T13:03:28.673Z,22.00
2023-08-17T13:05:56.350Z,22.00
2023-08-17T13:08:23.822Z,22.00
2023-08-17T13:10:51.264Z,21.80
2023-08-17T13:13:19.064Z,22.10
2023-08-17T13:15:46.587Z,22.10
2023-08-17T13:18:14.066Z,22.20
2023-08-17T13:20:41.632Z,22.30
2023-08-17T13:23:09.186Z,22.30
2023-08-17T13:25:36.677Z,22.30
2023-08-17T13:28:04.580Z,22.40
2023-08-17T13:30:32.103Z,22.50
2023-08-17T13:32:59.698Z,22.60
2023-08-17T13:35:27.252Z,22.60
2023-08-17T13:37:59.264Z,22.60
2023-08-17T13:40:26.832Z,22.50
2023-08-17T13:42:54.176Z,22.60
2023-08-17T13:45:21.946Z,22.50
2023-08-17T13:47:50.024Z,22.50
2023-08-17T13:50:19.682Z,22.50
2023-08-17T13:52:48.033Z,22.40
2023-08-17T13:55:18.305Z,22.50
2023-08-17T13:57:45.799Z,22.40
2023-08-17T14:00:14.199Z,22.40
2023-08-17T14:02:41.618Z,22.30
2023-08-17T14:05:09.120Z,22.30
2023-08-17T14:07:36.522Z,22.30
2023-08-17T14:10:09.559Z,22.20
2023-08-17T14:12:41.448Z,22.10
2023-08-17T14:15:09.325Z,22.10
2023-08-17T14:17:36.696Z,22.00
2023-08-17T14:20:05.660Z,22.00
2023-08-17T14:22:33.556Z,21.90
2023-08-17T14:25:00.976Z,21.80
2023-08-17T14:27:29.024Z,21.80
2023-08-17T14:29:56.943Z,21.80
2023-08-17T14:32:24.711Z,21.70
2023-08-17T14:34:52.547Z,21.70
2023-08-17T14:37:25.077Z,21.70
2023-08-17T14:39:53.013Z,21.70
2023-08-17T14:42:21.128Z,21.60
2023-08-17T14:44:48.502Z,21.60
2023-08-17T14:49:48.069Z,21.50
2023-08-17T14:52:15.582Z,21.50
2023-08-17T14:54:43.602Z,21.50
2023-08-17T14:57:11.244Z,21.60
2023-08-17T14:59:38.784Z,21.60
2023-08-17T15:02:06.298Z,21.60
2023-08-17T15:04:34.268Z,21.60
2023-08-17T15:07:01.637Z,21.60
2023-08-17T15:09:29.019Z,21.60
2023-08-17T15:11:56.475Z,21.60
2023-08-17T15:14:23.851Z,21.50
2023-08-17T15:16:51.307Z,21.60
2023-08-17T15:19:30.567Z,21.60
2023-08-17T15:22:05.928Z,21.50
2023-08-17T15:24:33.363Z,21.50
2023-08-17T15:27:00.801Z,21.50
2023-08-17T15:29:28.270Z,21.50
2023-08-17T15:31:55.669Z,21.50
2023-08-17T15:34:23.256Z,21.50
2023-08-17T15:36:50.631Z,21.60
2023-08-17T15:39:17.975Z,21.60
2023-08-17T15:41:45.492Z,21.60
2023-08-17T15:44:13.019Z,21.50
2023-08-17T15:46:40.907Z,21.60
2023-08-17T15:49:08.663Z,21.60
2023-08-17T15:51:36.321Z,21.60
2023-08-17T15:54:04.000Z,20.30
2023-08-17T15:56:31.679Z,21.50
2023-08-17T15:58:59.223Z,21.50
2023-08-17T16:01:27.242Z,21.60
2023-08-17T16:03:54.635Z,21.60
2023-08-17T16:06:22.180Z,21.60
2023-08-17T16:08:49.980Z,21.60
2023-08-17T16:11:17.425Z,21.60
2023-08-17T16:13:46.865Z,21.60
2023-08-17T16:16:14.811Z,21.60
2023-08-17T16:18:42.298Z,21.60
2023-08-17T16:23:39.971Z,21.90
2023-08-17T16:26:08.691Z,21.50
2023-08-17T16:28:36.045Z,22.00
2023-08-17T16:31:05.514Z,21.50
2023-08-17T16:33:33.528Z,21.50
2023-08-17T16:36:01.026Z,21.40
2023-08-17T16:38:28.474Z,21.40
2023-08-17T16:40:57.190Z,21.40
2023-08-17T16:43:24.548Z,21.50
2023-08-17T16:45:52.334Z,21.50
2023-08-17T16:48:24.695Z,21.40
2023-08-17T16:50:52.584Z,21.40
2023-08-17T16:53:20.459Z,21.40
2023-08-17T16:58:21.155Z,21.40
2023-08-17T17:00:48.536Z,21.30
2023-08-17T17:03:15.957Z,21.30
2023-08-17T17:05:43.353Z,21.60
2023-08-17T17:08:10.729Z,21.30
2023-08-17T17:10:38.336Z,21.20
2023-08-17T17:13:05.871Z,21.20
2023-08-17T17:15:33.262Z,21.10
2023-08-17T17:18:00.858Z,21.20
2023-08-17T17:20:28.333Z,21.20
2023-08-17T17:22:55.791Z,21.20
2023-08-17T17:25:23.127Z,21.10
2023-08-17T17:27:50.553Z,21.10
2023-08-17T17:30:18.102Z,21.00
2023-08-17T17:32:45.436Z,21.00
2023-08-17T17:35:12.814Z,21.00
2023-08-17T17:37:40.427Z,20.90
2023-08-17T17:40:11.197Z,20.90
2023-08-17T17:42:44.169Z,20.90
2023-08-17T17:45:11.610Z,20.90
2023-08-17T17:47:38.960Z,20.90
2023-08-17T17:50:07.968Z,20.90
2023-08-17T17:52:38.795Z,20.80
2023-08-17T17:55:06.690Z,20.80
2023-08-17T17:57:40.786Z,20.80
2023-08-17T18:00:09.129Z,20.70
2023-08-17T18:02:36.977Z,20.70
2023-08-17T18:05:05.677Z,20.70
2023-08-17T18:07:35.743Z,20.70
2023-08-17T18:10:06.269Z,20.30
2023-08-17T18:12:36.017Z,20.60
2023-08-17T18:15:03.786Z,20.60
2023-08-17T18:17:31.474Z,21.30
2023-08-17T18:20:01.046Z,20.50
2023-08-17T18:22:28.472Z,20.50
2023-08-17T18:24:56.077Z,20.40
2023-08-17T18:27:23.588Z,20.40
2023-08-17T18:29:50.934Z,20.40
2023-08-17T18:32:18.428Z,20.40
2023-08-17T18:34:45.821Z,20.30
2023-08-17T18:37:13.177Z,20.30
2023-08-17T18:39:40.778Z,20.20
2023-08-17T18:42:08.195Z,20.20
2023-08-17T18:44:35.540Z,20.20
2023-08-17T18:47:05.496Z,20.10
2023-08-17T18:49:33.229Z,20.10
2023-08-17T18:52:00.612Z,20.10
2023-08-17T18:54:30.285Z,20.00
2023-08-17T18:57:23.929Z,20.00
2023-08-17T19:00:00.909Z,19.90
2023-08-17T19:02:28.987Z,19.90
2023-08-17T19:05:19.718Z,19.90
2023-08-17T19:07:47.122Z,19.80
2023-08-17T19:10:14.923Z,19.70
2023-08-17T19:12:45.557Z,19.70
2023-08-17T19:15:15.554Z,19.60
2023-08-17T19:17:43.020Z,19.60
2023-08-17T19:20:13.445Z,19.60
2023-08-17T19:22:43.968Z,19.60
2023-08-17T19:25:29.526Z,19.70
2023-08-17T19:27:57.256Z,19.50
2023-08-17T19:30:24.883Z,19.50
2023-08-17T19:32:59.978Z,19.50
2023-08-17T19:35:28.186Z,19.50
2023-08-17T19:37:56.750Z,19.50
2023-08-17T19:40:24.669Z,19.50
2023-08-17T19:42:52.323Z,19.50
2023-08-17T19:45:19.913Z,19.50
2023-08-17T19:47:47.498Z,19.40
2023-08-17T19:50:25.224Z,19.40
2023-08-17T19:52:52.569Z,19.40
2023-08-17T19:55:21.345Z,19.50
2023-08-17T19:58:07.355Z,19.40
2023-08-17T20:00:35.175Z,19.40
2023-08-17T20:03:02.944Z,19.40
2023-08-17T20:05:37.865Z,19.80
2023-08-17T20:08:25.157Z,19.40
2023-08-17T20:10:54.988Z,19.40
2023-08-17T20:13:25.607Z,19.20
2023-08-17T20:15:56.110Z,19.30
2023-08-17T20:18:23.529Z,19.30
2023-08-17T20:21:00.220Z,19.20
2023-08-17T20:23:28.771Z,19.20
2023-08-17T20:26:05.324Z,19.20
2023-08-17T20:28:44.782Z,19.30
2023-08-17T20:31:26.652Z,19.20
2023-08-17T20:33:54.184Z,19.20
2023-08-17T20:36:21.534Z,19.20
2023-08-17T20:38:48.969Z,19.20
2023-08-17T20:41:16.492Z,19.20
2023-08-17T20:43:43.880Z,19.20
2023-08-17T20:46:21.983Z,19.20
2023-08-17T20:48:53.293Z,19.20
2023-08-17T20:51:20.946Z,19.20
2023-08-17T20:53:48.295Z,19.20
2023-08-17T20:56:27.037Z,19.20
2023-08-17T20:59:11.016Z,19.20
2023-08-17T21:01:48.254Z,19.20
2023-08-17T21:04:28.164Z,19.20
2023-08-17T21:06:55.596Z,19.10
2023-08-17T21:09:22.995Z,19.10
2023-08-17T21:11:51.564Z,19.10
2023-08-17T21:14:23.421Z,19.10
2023-08-17T21:16:56.849Z,19.10
2023-08-17T21:19:30.276Z,19.10
2023-08-17T21:21:57.943Z,19.10
2023-08-17T21:24:28.149Z,19.10
2023-08-17T21:26:55.795Z,19.10
2023-08-17T21:29:25.560Z,19.10
2023-08-17T21:31:52.949Z,19.10
2023-08-17T21:34:21.122Z,19.00
2023-08-17T21:36:49.730Z,19.00
2023-08-17T21:39:17.208Z,19.00
2023-08-17T21:41:52.072Z,19.00
2023-08-17T21:44:19.456Z,19.00
2023-08-17T21:46:56.205Z,19.00
2023-08-17T21:49:24.559Z,19.00
2023-08-17T21:51:52.757Z,19.00
2023-08-17T21:54:20.282Z,19.00
2023-08-17T21:56:47.644Z,19.00
2023-08-17T21:59:15.048Z,19.00
2023-08-17T22:01:42.490Z,19.00
2023-08-17T22:04:09.924Z,19.00
2023-08-17T22:06:38.658Z,19.00
2023-08-17T22:09:11.581Z,19.00
2023-08-17T22:11:42.168Z,19.00
2023-08-17T22:14:12.379Z,19.00
2023-08-17T22:16:48.828Z,19.00
2023-08-17T22:19:16.263Z,19.00
2023-08-17T22:21:43.645Z,19.00
2023-08-17T22:24:11.299Z,19.00
2023-08-17T22:26:39.884Z,19.00
2023-08-17T22:29:07.823Z,19.00
2023-08-17T22:31:35.608Z,19.00
2023-08-17T22:34:03.026Z,19.00
2023-08-17T22:36:30.474Z,19.00
2023-08-17T22:39:06.934Z,19.00
2023-08-17T22:41:34.569Z,19.00
2023-08-17T22:44:06.934Z,19.00
2023-08-17T22:46:34.515Z,19.00
2023-08-17T22:49:16.966Z,19.00
2023-08-17T22:51:46.657Z,19.00
2023-08-17T22:54:14.186Z,19.00
2023-08-17T22:56:41.604Z,19.00
2023-08-17T22:59:09.999Z,19.00
2023-08-17T23:01:37.395Z,19.00
2023-08-17T23:04:05.217Z,19.00
2023-08-17T23:06:32.662Z,19.00
2023-08-17T23:09:02.408Z,19.00
2023-08-17T23:11:38.780Z,19.00
2023-08-17T23:14:05.984Z,19.00
2023-08-17T23:16:33.281Z,19.00
2023-08-17T23:19:00.625Z,19.00
2023-08-17T23:21:27.919Z,19.00
2023-08-17T23:23:57.531Z,19.00
2023-08-17T23:26:27.626Z,19.00
2023-08-17T23:28:55.030Z,19.00
2023-08-17T23:31:22.444Z,19.00
2023-08-17T23:33:49.761Z,19.00
2023-08-17T23:36:18.143Z,19.00
2023-08-17T23:38:46.003Z,19.00
2023-08-17T23:41:18.225Z,19.10
2023-08-17T23:43:45.519Z,19.00
2023-08-17T23:46:12.939Z,19.00
2023-08-17T23:48:40.414Z,19.20
2023-08-17T23:51:21.519Z,19.10
2023-08-17T23:53:48.868Z,19.00
2023-08-17T23:56:16.195Z,19.00
2023-08-17T23:58:47.767Z,19.00
